Aérodrome :
LOGIN :

S'inscrire | Disclaimer

   EN    FR    IT 

 










Légende :    VFR   VFR Marginal   IFR   IFR Intensif   IFR Très Intensif
Visi : 
Plafond : 
>= 8 km
>= 3000ft
5 à 8 km
1000 à 3000 ft
1500m à 5 km
500 à 1000 ft
800 à 1500m
200 à 500 ft
< 800m
< 200 ft
Symboles :   Orages  Brouillard  Fortes neiges  Fortes précipitations  Vent > 20 kt
SIGMETs :   Divers  Orages  Givrage  Turbulence  Onde Orograph.  Cendres Volcan.






- Altitude de l'aérodrome : 242 ft
- Code IATA : DUB


EIDW - Dublin

DERNIER METAR :
  • 241630Z 27020KT 9999 FEW022 SCT038 07/02 Q1002 NOSIG

METARs EXPIRÉS :
  • 241600Z 28024KT 9999 FEW022 SCT037 07/03 Q1002 NOSIG
  • 241530Z 28021KT 9999 -SHRA FEW022 SCT034 07/03 Q1001 NOSIG
  • 241500Z 28027KT 9999 FEW022 SCT037 08/02 Q1001 NOSIG
  • 241430Z 27026KT 9999 FEW020 BKN030 07/02 Q1001 NOSIG
  • 241400Z 27024KT 9999 SCT016 SCT023 BKN030 07/04 Q1000 NOSIG

TAF TAF EIDW
Valide du 24 à 12h jusqu'au 25 à 12h UTC


241100Z 2412/2512 26022G35KT 9999 SCT015 BKN030
TEMPO 2412/2415 27025G42KT BKN009
BECMG 2418/2420 25015G25KT
PROB30
TEMPO 2503/2512 26018G33KT -SHRAGS FEW018CB BKN020



MET'MAP, la Météo Aéronautique d'un coup d'oeil ! - Copyright ORBIFLY Décembre 2007 - Disclaimer

ORBIFLY MET'MAP TEAM :

Programmation & Développement : Alexandra Zaïnal
Sur une idée originale de : Baudouin d'Aumeries
Assistance à la programmation : Marc-Olivier Méhu
Soutien technique & logistique : Manuel Goepfert

Contact : metmap@orbifly.com




SOURCES & CREDITS :

   NOAA